Airfield :
LOGIN :

Register | Disclaimer

   EN    FR    IT 

 










Legend :    VFR   Marginal VFR   IFR   Intensive IFR   Very Intensive IFR
Visi :
Ceiling :
>= 8 km
>= 3000ft
5 to 8 km
1000 to 3000 ft
1500m to 5 km
500 to 1000 ft
800 to 1500m
200 to 500 ft
< 800m
< 200 ft
Symbols :   Thunderstorms  Fog  Heavy snow  Heavy precipitations  Wind > 20 kt
SIGMETs :     Misc.  Thunderstorms  Icing  Turbulence  Mountain Waves  Volcanic Ashes






- Airport Elevation : 978 ft
- IATA code : LNZ


LOWL - Linz

CURRENT METAR :
  • 290620Z VRB02KT 9999 FEW070 04/01 Q1015 NOSIG

EXPIRED METARs :
  • 290550Z 23002KT 9999 FEW070 03/00 Q1015 NOSIG
  • 290520Z VRB02KT 9999 FEW070 03/M00 Q1015 NOSIG
  • 290450Z 26004KT 9999 FEW070 03/M00 Q1015 NOSIG
  • 290420Z 24002KT 9999 FEW070 05/01 Q1015 NOSIG
  • 290350Z 26004KT 9999 SCT070 04/01 Q1015 NOSIG
  • 290320Z VRB01KT 9999 FEW070 05/01 Q1015 NOSIG

TAF TAF LOWL
Valid from the 29 at 06:00 until the 30 at 06:00 UTC


290515Z 2906/3006 28004KT 9999 SCT050 BKN080 TX11/2914Z TN01/3006Z
BECMG 3000/3002 36006KT -RASN
TEMPO 3003/3006 05008KT 4500 -SN BKN020



MET'MAP, your aeronautical weather chart ! - Copyright ORBIFLY December 2007 - Disclaimer

ORBIFLY MET'MAP TEAM :

Programming & Development : Alexandra Zaïnal
Concept & original design : Baudouin d'Aumeries
Assistance for programming : Marc-Olivier Méhu
Technical & hardware support : Manuel Goepfert

Contact : metmap@orbifly.com




SOURCES & CREDITS :

   NOAA